sensor_id;sensor_type;location;lat;lon;timestamp;pressure;altitude;pressure_sealevel;temperature;humidity
55301;BME280;58302;51.446;-2.000;2023-02-20T00:00:59;101805.91;;;6.79;100.00
55301;BME280;58302;51.446;-2.000;2023-02-20T00:03:25;101793.88;;;6.81;100.00
55301;BME280;58302;51.446;-2.000;2023-02-20T00:05:50;101797.41;;;6.82;100.00
55301;BME280;58302;51.446;-2.000;2023-02-20T00:08:16;101796.59;;;6.81;100.00
55301;BME280;58302;51.446;-2.000;2023-02-20T00:10:42;101801.34;;;6.79;100.00
55301;BME280;58302;51.446;-2.000;2023-02-20T00:13:07;101799.69;;;6.78;100.00
55301;BME280;58302;51.446;-2.000;2023-02-20T00:15:33;101792.84;;;6.82;100.00
55301;BME280;58302;51.446;-2.000;2023-02-20T00:17:59;101793.25;;;6.79;100.00
55301;BME280;58302;51.446;-2.000;2023-02-20T00:20:25;101782.03;;;6.76;100.00
55301;BME280;58302;51.446;-2.000;2023-02-20T00:22:51;101785.34;;;6.78;100.00
55301;BME280;58302;51.446;-2.000;2023-02-20T00:25:18;101776.41;;;6.77;100.00
55301;BME280;58302;51.446;-2.000;2023-02-20T00:27:44;101763.53;;;6.73;100.00
55301;BME280;58302;51.446;-2.000;2023-02-20T00:30:16;101766.84;;;6.75;100.00
55301;BME280;58302;51.446;-2.000;2023-02-20T00:32:44;101770.19;;;6.77;100.00
55301;BME280;58302;51.446;-2.000;2023-02-20T00:35:10;101775.16;;;6.80;100.00
55301;BME280;58302;51.446;-2.000;2023-02-20T00:37:36;101771.41;;;6.81;100.00
55301;BME280;58302;51.446;-2.000;2023-02-20T00:40:03;101773.09;;;6.82;100.00
55301;BME280;58302;51.446;-2.000;2023-02-20T00:42:29;101775.97;;;6.80;100.00
55301;BME280;58302;51.446;-2.000;2023-02-20T00:44:54;101774.53;;;6.84;100.00
55301;BME280;58302;51.446;-2.000;2023-02-20T00:47:20;101767.47;;;6.83;100.00
55301;BME280;58302;51.446;-2.000;2023-02-20T00:49:46;101759.59;;;6.82;100.00
55301;BME280;58302;51.446;-2.000;2023-02-20T00:52:12;101767.25;;;6.85;100.00
55301;BME280;58302;51.446;-2.000;2023-02-20T00:54:37;101756.22;;;6.86;100.00
55301;BME280;58302;51.446;-2.000;2023-02-20T00:57:03;101755.41;;;6.86;100.00
55301;BME280;58302;51.446;-2.000;2023-02-20T00:59:29;101748.56;;;6.83;100.00
55301;BME280;58302;51.446;-2.000;2023-02-20T01:01:54;101741.06;;;6.85;100.00
55301;BME280;58302;51.446;-2.000;2023-02-20T01:04:20;101750.22;;;6.84;100.00
55301;BME280;58302;51.446;-2.000;2023-02-20T01:06:46;101744.81;;;6.84;100.00
55301;BME280;58302;51.446;-2.000;2023-02-20T01:09:12;101748.78;;;6.82;100.00
55301;BME280;58302;51.446;-2.000;2023-02-20T01:11:40;101745.66;;;6.78;100.00
55301;BME280;58302;51.446;-2.000;2023-02-20T01:14:05;101744.22;;;6.76;100.00
55301;BME280;58302;51.446;-2.000;2023-02-20T01:16:31;101745.88;;;6.77;100.00
55301;BME280;58302;51.446;-2.000;2023-02-20T01:18:57;101735.03;;;6.83;100.00
55301;BME280;58302;51.446;-2.000;2023-02-20T01:21:23;101736.28;;;6.81;100.00
55301;BME280;58302;51.446;-2.000;2023-02-20T01:23:48;101738.56;;;6.84;100.00
55301;BME280;58302;51.446;-2.000;2023-02-20T01:26:14;101730.03;;;6.80;100.00
55301;BME280;58302;51.446;-2.000;2023-02-20T01:28:46;101731.31;;;6.78;100.00
55301;BME280;58302;51.446;-2.000;2023-02-20T01:31:14;101734.22;;;6.76;100.00
55301;BME280;58302;51.446;-2.000;2023-02-20T01:33:40;101743.56;;;6.74;100.00
55301;BME280;58302;51.446;-2.000;2023-02-20T01:36:06;101732.97;;;6.79;100.00
55301;BME280;58302;51.446;-2.000;2023-02-20T01:38:32;101736.72;;;6.78;100.00
55301;BME280;58302;51.446;-2.000;2023-02-20T01:40:58;101742.34;;;6.76;100.00
55301;BME280;58302;51.446;-2.000;2023-02-20T01:43:23;101735.66;;;6.79;100.00
55301;BME280;58302;51.446;-2.000;2023-02-20T01:45:49;101743.16;;;6.77;100.00
55301;BME280;58302;51.446;-2.000;2023-02-20T01:48:22;101739.63;;;6.76;100.00
55301;BME280;58302;51.446;-2.000;2023-02-20T01:50:50;101741.50;;;6.76;100.00
55301;BME280;58302;51.446;-2.000;2023-02-20T01:53:17;101743.56;;;6.74;100.00
55301;BME280;58302;51.446;-2.000;2023-02-20T01:55:46;101738.59;;;6.71;100.00
55301;BME280;58302;51.446;-2.000;2023-02-20T01:58:16;101738.16;;;6.67;100.00
55301;BME280;58302;51.446;-2.000;2023-02-20T02:00:44;101740.44;;;6.64;100.00
55301;BME280;58302;51.446;-2.000;2023-02-20T02:03:13;101737.34;;;6.60;100.00
55301;BME280;58302;51.446;-2.000;2023-02-20T02:05:42;101740.44;;;6.57;100.00
55301;BME280;58302;51.446;-2.000;2023-02-20T02:08:09;101733.16;;;6.57;100.00
55301;BME280;58302;51.446;-2.000;2023-02-20T02:10:43;101735.03;;;6.57;100.00
55301;BME280;58302;51.446;-2.000;2023-02-20T02:13:11;101725.91;;;6.51;100.00
55301;BME280;58302;51.446;-2.000;2023-02-20T02:15:37;101734.63;;;6.53;100.00
55301;BME280;58302;51.446;-2.000;2023-02-20T02:33:45;101710.94;;;6.42;100.00
55301;BME280;58302;51.446;-2.000;2023-02-20T02:41:21;101701.16;;;6.41;100.00
55301;BME280;58302;51.446;-2.000;2023-02-20T02:43:56;101699.50;;;6.40;100.00
55301;BME280;58302;51.446;-2.000;2023-02-20T02:46:28;101705.75;;;6.41;100.00
55301;BME280;58302;51.446;-2.000;2023-02-20T02:51:36;101697.84;;;6.46;100.00
55301;BME280;58302;51.446;-2.000;2023-02-20T02:56:36;101696.19;;;6.51;100.00
55301;BME280;58302;51.446;-2.000;2023-02-20T02:59:03;101692.88;;;6.49;100.00
55301;BME280;58302;51.446;-2.000;2023-02-20T03:01:29;101691.22;;;6.55;100.00
55301;BME280;58302;51.446;-2.000;2023-02-20T03:03:55;101695.78;;;6.54;100.00
55301;BME280;58302;51.446;-2.000;2023-02-20T03:06:24;101691.41;;;6.53;100.00
55301;BME280;58302;51.446;-2.000;2023-02-20T03:09:13;101687.03;;;6.52;100.00
55301;BME280;58302;51.446;-2.000;2023-02-20T03:11:40;101688.31;;;6.56;100.00
55301;BME280;58302;51.446;-2.000;2023-02-20T03:14:14;101693.47;;;6.58;100.00
55301;BME280;58302;51.446;-2.000;2023-02-20T03:17:05;101692.03;;;6.55;100.00
55301;BME280;58302;51.446;-2.000;2023-02-20T03:19:37;101692.03;;;6.55;100.00
55301;BME280;58302;51.446;-2.000;2023-02-20T03:22:04;101688.91;;;6.58;100.00
55301;BME280;58302;51.446;-2.000;2023-02-20T03:24:32;101699.94;;;6.57;100.00
55301;BME280;58302;51.446;-2.000;2023-02-20T03:27:18;101694.53;;;6.57;100.00
55301;BME280;58302;51.446;-2.000;2023-02-20T03:29:44;101684.56;;;6.57;100.00
55301;BME280;58302;51.446;-2.000;2023-02-20T03:32:11;101689.34;;;6.55;100.00
55301;BME280;58302;51.446;-2.000;2023-02-20T03:34:57;101688.09;;;6.58;100.00
55301;BME280;58302;51.446;-2.000;2023-02-20T03:37:42;101686.03;;;6.60;100.00
55301;BME280;58302;51.446;-2.000;2023-02-20T03:40:28;101679.16;;;6.57;100.00
55301;BME280;58302;51.446;-2.000;2023-02-20T03:43:15;101687.03;;;6.59;100.00
55301;BME280;58302;51.446;-2.000;2023-02-20T03:45:59;101678.09;;;6.58;100.00
55301;BME280;58302;51.446;-2.000;2023-02-20T03:48:41;101681.63;;;6.59;100.00
55301;BME280;58302;51.446;-2.000;2023-02-20T03:51:08;101685.38;;;6.58;100.00
55301;BME280;58302;51.446;-2.000;2023-02-20T03:53:34;101685.38;;;6.58;100.00
55301;BME280;58302;51.446;-2.000;2023-02-20T03:56:01;101687.25;;;6.57;100.00
55301;BME280;58302;51.446;-2.000;2023-02-20T03:58:30;101684.16;;;6.54;100.00
55301;BME280;58302;51.446;-2.000;2023-02-20T04:00:59;101687.47;;;6.49;100.00
55301;BME280;58302;51.446;-2.000;2023-02-20T04:03:28;101673.16;;;6.49;100.00
55301;BME280;58302;51.446;-2.000;2023-02-20T04:05:55;101682.69;;;6.45;100.00
55301;BME280;58302;51.446;-2.000;2023-02-20T04:08:23;101682.28;;;6.41;100.00
55301;BME280;58302;51.446;-2.000;2023-02-20T04:10:59;101678.75;;;6.41;100.00
55301;BME280;58302;51.446;-2.000;2023-02-20T04:13:26;101677.69;;;6.42;100.00
55301;BME280;58302;51.446;-2.000;2023-02-20T04:15:53;101681.66;;;6.39;100.00
55301;BME280;58302;51.446;-2.000;2023-02-20T04:18:20;101686.41;;;6.37;100.00
55301;BME280;58302;51.446;-2.000;2023-02-20T04:20:47;101677.31;;;6.38;100.00
55301;BME280;58302;51.446;-2.000;2023-02-20T04:23:15;101677.91;;;6.33;100.00
55301;BME280;58302;51.446;-2.000;2023-02-20T04:28:07;101665.44;;;6.26;100.00
55301;BME280;58302;51.446;-2.000;2023-02-20T04:30:33;101663.38;;;6.21;100.00
55301;BME280;58302;51.446;-2.000;2023-02-20T04:32:58;101660.88;;;6.20;100.00
55301;BME280;58302;51.446;-2.000;2023-02-20T04:35:24;101667.31;;;6.19;100.00
55301;BME280;58302;51.446;-2.000;2023-02-20T04:37:50;101662.53;;;6.21;100.00
55301;BME280;58302;51.446;-2.000;2023-02-20T04:40:18;101658.16;;;6.20;100.00
55301;BME280;58302;51.446;-2.000;2023-02-20T04:42:44;101660.47;;;6.16;100.00
55301;BME280;58302;51.446;-2.000;2023-02-20T04:45:10;101662.94;;;6.18;100.00
55301;BME280;58302;51.446;-2.000;2023-02-20T04:47:36;101665.88;;;6.16;100.00
55301;BME280;58302;51.446;-2.000;2023-02-20T04:50:02;101658.59;;;6.17;100.00
55301;BME280;58302;51.446;-2.000;2023-02-20T04:52:28;101663.34;;;6.15;100.00
55301;BME280;58302;51.446;-2.000;2023-02-20T04:54:53;101661.28;;;6.17;100.00
55301;BME280;58302;51.446;-2.000;2023-02-20T04:57:19;101658.78;;;6.15;100.00
55301;BME280;58302;51.446;-2.000;2023-02-20T04:59:46;101661.09;;;6.18;100.00
55301;BME280;58302;51.446;-2.000;2023-02-20T05:02:12;101658.78;;;6.15;100.00
55301;BME280;58302;51.446;-2.000;2023-02-20T05:04:38;101657.34;;;6.13;100.00
55301;BME280;58302;51.446;-2.000;2023-02-20T05:07:04;101657.34;;;6.13;100.00
55301;BME280;58302;51.446;-2.000;2023-02-20T05:09:30;101653.59;;;6.14;100.00
55301;BME280;58302;51.446;-2.000;2023-02-20T05:11:56;101650.28;;;6.12;100.00
55301;BME280;58302;51.446;-2.000;2023-02-20T05:14:22;101661.47;;;6.08;100.00
55301;BME280;58302;51.446;-2.000;2023-02-20T05:16:48;101656.28;;;6.07;100.00
55301;BME280;58302;51.446;-2.000;2023-02-20T05:19:16;101661.91;;;6.05;100.00
55301;BME280;58302;51.446;-2.000;2023-02-20T05:21:42;101664.78;;;6.04;100.00
55301;BME280;58302;51.446;-2.000;2023-02-20T05:24:26;101661.06;;;6.05;100.00
55301;BME280;58302;51.446;-2.000;2023-02-20T05:26:53;101660.25;;;6.04;100.00
55301;BME280;58302;51.446;-2.000;2023-02-20T05:29:19;101663.97;;;6.03;100.00
55301;BME280;58302;51.446;-2.000;2023-02-20T05:31:45;101661.25;;;6.03;100.00
55301;BME280;58302;51.446;-2.000;2023-02-20T05:34:11;101665.00;;;6.02;100.00
55301;BME280;58302;51.446;-2.000;2023-02-20T05:36:36;101659.59;;;6.02;100.00
55301;BME280;58302;51.446;-2.000;2023-02-20T05:39:03;101651.72;;;6.01;100.00
55301;BME280;58302;51.446;-2.000;2023-02-20T05:41:28;101661.25;;;6.03;100.00
55301;BME280;58302;51.446;-2.000;2023-02-20T05:43:54;101654.00;;;6.04;100.00
55301;BME280;58302;51.446;-2.000;2023-02-20T05:46:25;101654.22;;;6.02;100.00
55301;BME280;58302;51.446;-2.000;2023-02-20T05:48:51;101653.59;;;6.07;100.00
55301;BME280;58302;51.446;-2.000;2023-02-20T05:51:23;101648.41;;;6.05;100.00
55301;BME280;58302;51.446;-2.000;2023-02-20T05:53:49;101646.75;;;6.04;100.00
55301;BME280;58302;51.446;-2.000;2023-02-20T05:56:15;101644.06;;;6.04;100.00
55301;BME280;58302;51.446;-2.000;2023-02-20T05:58:41;101640.72;;;6.02;100.00
55301;BME280;58302;51.446;-2.000;2023-02-20T06:01:09;101642.19;;;6.05;100.00
55301;BME280;58302;51.446;-2.000;2023-02-20T06:03:40;101636.78;;;6.05;100.00
55301;BME280;58302;51.446;-2.000;2023-02-20T06:06:06;101641.34;;;6.04;100.00
55301;BME280;58302;51.446;-2.000;2023-02-20T06:08:31;101636.78;;;6.05;100.00
55301;BME280;58302;51.446;-2.000;2023-02-20T06:10:57;101636.34;;;6.01;100.00
55301;BME280;58302;51.446;-2.000;2023-02-20T06:13:23;101636.97;;;6.03;100.00
55301;BME280;58302;51.446;-2.000;2023-02-20T06:15:49;101637.19;;;6.02;100.00
55301;BME280;58302;51.446;-2.000;2023-02-20T06:18:14;101638.00;;;6.02;100.00
55301;BME280;58302;51.446;-2.000;2023-02-20T06:20:40;101633.44;;;6.03;100.00
55301;BME280;58302;51.446;-2.000;2023-02-20T06:23:06;101632.41;;;6.04;100.00
55301;BME280;58302;51.446;-2.000;2023-02-20T06:25:31;101627.66;;;6.06;100.00
55301;BME280;58302;51.446;-2.000;2023-02-20T06:27:57;101631.41;;;6.05;100.00
55301;BME280;58302;51.446;-2.000;2023-02-20T06:30:23;101625.16;;;6.04;100.00
55301;BME280;58302;51.446;-2.000;2023-02-20T06:32:49;101623.47;;;6.03;100.00
55301;BME280;58302;51.446;-2.000;2023-02-20T06:35:15;101628.88;;;6.03;100.00
55301;BME280;58302;51.446;-2.000;2023-02-20T06:37:40;101628.88;;;6.03;100.00
55301;BME280;58302;51.446;-2.000;2023-02-20T06:40:06;101627.44;;;6.07;100.00
55301;BME280;58302;51.446;-2.000;2023-02-20T06:42:32;101630.13;;;6.07;100.00
55301;BME280;58302;51.446;-2.000;2023-02-20T06:44:58;101637.41;;;6.07;100.00
55301;BME280;58302;51.446;-2.000;2023-02-20T06:47:23;101627.22;;;6.09;100.00
55301;BME280;58302;51.446;-2.000;2023-02-20T06:49:49;101634.91;;;6.12;100.00
55301;BME280;58302;51.446;-2.000;2023-02-20T06:52:15;101643.00;;;6.12;100.00
55301;BME280;58302;51.446;-2.000;2023-02-20T06:54:41;101630.34;;;6.13;100.00
55301;BME280;58302;51.446;-2.000;2023-02-20T06:57:07;101629.31;;;6.14;100.00
55301;BME280;58302;51.446;-2.000;2023-02-20T06:59:33;101625.78;;;6.13;100.00
55301;BME280;58302;51.446;-2.000;2023-02-20T07:02:04;101618.28;;;6.15;100.00
55301;BME280;58302;51.446;-2.000;2023-02-20T07:04:30;101611.06;;;6.16;100.00
55301;BME280;58302;51.446;-2.000;2023-02-20T07:06:56;101615.41;;;6.17;100.00
55301;BME280;58302;51.446;-2.000;2023-02-20T07:09:21;101608.34;;;6.16;100.00
55301;BME280;58302;51.446;-2.000;2023-02-20T07:11:50;101597.56;;;6.16;100.00
55301;BME280;58302;51.446;-2.000;2023-02-20T07:14:16;101599.22;;;6.17;100.00
55301;BME280;58302;51.446;-2.000;2023-02-20T07:16:42;101607.94;;;6.19;100.00
55301;BME280;58302;51.446;-2.000;2023-02-20T07:19:08;101610.41;;;6.20;100.00
55301;BME280;58302;51.446;-2.000;2023-02-20T07:21:33;101611.88;;;6.23;100.00
55301;BME280;58302;51.446;-2.000;2023-02-20T07:23:59;101600.66;;;6.26;100.00
55301;BME280;58302;51.446;-2.000;2023-02-20T07:26:27;101612.31;;;6.26;100.00
55301;BME280;58302;51.446;-2.000;2023-02-20T07:28:53;101610.81;;;6.30;100.00
55301;BME280;58302;51.446;-2.000;2023-02-20T07:31:19;101606.91;;;6.33;100.00
55301;BME280;58302;51.446;-2.000;2023-02-20T07:33:45;101613.94;;;6.34;100.00
55301;BME280;58302;51.446;-2.000;2023-02-20T07:36:14;101615.00;;;6.33;100.00
55301;BME280;58302;51.446;-2.000;2023-02-20T07:38:40;101627.00;;;6.37;100.00
55301;BME280;58302;51.446;-2.000;2023-02-20T07:41:06;101624.31;;;6.37;100.00
55301;BME280;58302;51.446;-2.000;2023-02-20T07:43:33;101627.66;;;6.39;100.00
55301;BME280;58302;51.446;-2.000;2023-02-20T07:45:59;101627.88;;;6.44;100.00
55301;BME280;58302;51.446;-2.000;2023-02-20T07:48:25;101624.94;;;6.46;100.00
55301;BME280;58302;51.446;-2.000;2023-02-20T07:50:51;101635.53;;;6.47;100.00
55301;BME280;58302;51.446;-2.000;2023-02-20T07:53:18;101638.88;;;6.49;100.00
55301;BME280;58302;51.446;-2.000;2023-02-20T07:55:44;101647.59;;;6.51;100.00
55301;BME280;58302;51.446;-2.000;2023-02-20T07:58:10;101641.13;;;6.52;100.00
55301;BME280;58302;51.446;-2.000;2023-02-20T08:00:35;101635.09;;;6.57;100.00
55301;BME280;58302;51.446;-2.000;2023-02-20T08:03:01;101639.91;;;6.55;100.00
55301;BME280;58302;51.446;-2.000;2023-02-20T08:05:27;101627.84;;;6.57;100.00
55301;BME280;58302;51.446;-2.000;2023-02-20T08:07:53;101637.59;;;6.65;100.00
55301;BME280;58302;51.446;-2.000;2023-02-20T08:10:20;101643.84;;;6.66;100.00
55301;BME280;58302;51.446;-2.000;2023-02-20T08:12:47;101647.97;;;6.68;100.00
55301;BME280;58302;51.446;-2.000;2023-02-20T08:15:13;101637.38;;;6.73;100.00
55301;BME280;58302;51.446;-2.000;2023-02-20T08:17:39;101637.97;;;6.75;100.00
55301;BME280;58302;51.446;-2.000;2023-02-20T08:20:05;101640.50;;;6.77;100.00
55301;BME280;58302;51.446;-2.000;2023-02-20T08:22:32;101651.06;;;6.85;100.00
55301;BME280;58302;51.446;-2.000;2023-02-20T08:24:57;101652.31;;;6.89;100.00
55301;BME280;58302;51.446;-2.000;2023-02-20T08:27:23;101647.94;;;6.95;100.00
55301;BME280;58302;51.446;-2.000;2023-02-20T08:29:49;101645.66;;;6.98;100.00
55301;BME280;58302;51.446;-2.000;2023-02-20T08:32:15;101644.78;;;7.04;100.00
55301;BME280;58302;51.446;-2.000;2023-02-20T08:34:40;101637.72;;;7.10;100.00
55301;BME280;58302;51.446;-2.000;2023-02-20T08:37:06;101633.72;;;7.12;100.00
55301;BME280;58302;51.446;-2.000;2023-02-20T08:39:34;101636.00;;;7.22;100.00
55301;BME280;58302;51.446;-2.000;2023-02-20T08:42:00;101646.78;;;7.29;100.00
55301;BME280;58302;51.446;-2.000;2023-02-20T08:44:26;101646.56;;;7.37;100.00
55301;BME280;58302;51.446;-2.000;2023-02-20T08:46:52;101649.44;;;7.42;100.00
55301;BME280;58302;51.446;-2.000;2023-02-20T08:49:18;101646.94;;;7.47;100.00
55301;BME280;58302;51.446;-2.000;2023-02-20T08:51:44;101650.19;;;7.56;100.00
55301;BME280;58302;51.446;-2.000;2023-02-20T08:54:11;101655.78;;;7.61;100.00
55301;BME280;58302;51.446;-2.000;2023-02-20T08:56:36;101655.75;;;7.68;100.00
55301;BME280;58302;51.446;-2.000;2023-02-20T08:59:02;101651.81;;;7.70;100.00
55301;BME280;58302;51.446;-2.000;2023-02-20T09:01:28;101659.69;;;7.72;100.00
55301;BME280;58302;51.446;-2.000;2023-02-20T09:03:54;101646.75;;;7.74;100.00
55301;BME280;58302;51.446;-2.000;2023-02-20T09:06:20;101645.28;;;7.78;100.00
55301;BME280;58302;51.446;-2.000;2023-02-20T09:08:49;101645.91;;;7.80;100.00
55301;BME280;58302;51.446;-2.000;2023-02-20T09:11:14;101650.00;;;7.89;100.00
55301;BME280;58302;51.446;-2.000;2023-02-20T09:13:41;101640.81;;;7.97;100.00
55301;BME280;58302;51.446;-2.000;2023-02-20T09:16:07;101638.72;;;7.99;100.00
55301;BME280;58302;51.446;-2.000;2023-02-20T09:18:33;101643.47;;;8.03;100.00
55301;BME280;58302;51.446;-2.000;2023-02-20T09:20:58;101637.00;;;8.04;100.00
55301;BME280;58302;51.446;-2.000;2023-02-20T09:23:24;101638.00;;;8.10;100.00
55301;BME280;58302;51.446;-2.000;2023-02-20T09:25:51;101646.06;;;8.16;100.00
55301;BME280;58302;51.446;-2.000;2023-02-20T09:28:18;101658.31;;;8.26;100.00
55301;BME280;58302;51.446;-2.000;2023-02-20T09:30:44;101631.41;;;8.31;100.00
55301;BME280;58302;51.446;-2.000;2023-02-20T09:33:09;101635.13;;;8.36;100.00
55301;BME280;58302;51.446;-2.000;2023-02-20T09:35:35;101638.38;;;8.45;100.00
55301;BME280;58302;51.446;-2.000;2023-02-20T09:38:01;101642.69;;;8.53;100.00
55301;BME280;58302;51.446;-2.000;2023-02-20T09:40:28;101638.19;;;8.65;100.00
55301;BME280;58302;51.446;-2.000;2023-02-20T09:45:24;101640.09;;;8.83;100.00
55301;BME280;58302;51.446;-2.000;2023-02-20T09:52:55;101639.38;;;9.12;100.00
55301;BME280;58302;51.446;-2.000;2023-02-20T09:55:23;101638.31;;;9.13;100.00
55301;BME280;58302;51.446;-2.000;2023-02-20T09:57:52;101634.25;;;9.04;100.00
55301;BME280;58302;51.446;-2.000;2023-02-20T10:00:20;101635.06;;;9.05;100.00
55301;BME280;58302;51.446;-2.000;2023-02-20T10:05:27;101639.59;;;9.11;100.00
55301;BME280;58302;51.446;-2.000;2023-02-20T10:07:53;101643.94;;;9.12;100.00
55301;BME280;58302;51.446;-2.000;2023-02-20T10:15:24;101641.38;;;9.35;100.00
55301;BME280;58302;51.446;-2.000;2023-02-20T10:17:59;101644.47;;;9.39;100.00
55301;BME280;58302;51.446;-2.000;2023-02-20T10:25:58;101643.44;;;9.70;100.00
55301;BME280;58302;51.446;-2.000;2023-02-20T10:28:25;101637.69;;;9.78;100.00
55301;BME280;58302;51.446;-2.000;2023-02-20T10:33:40;101628.41;;;9.97;100.00
55301;BME280;58302;51.446;-2.000;2023-02-20T10:39:25;101609.91;;;10.06;100.00
55301;BME280;58302;51.446;-2.000;2023-02-20T10:43:59;101619.19;;;10.28;100.00
55301;BME280;58302;51.446;-2.000;2023-02-20T10:49:12;101620.97;;;10.35;100.00
55301;BME280;58302;51.446;-2.000;2023-02-20T10:51:41;101627.47;;;10.45;100.00
55301;BME280;58302;51.446;-2.000;2023-02-20T10:54:09;101630.44;;;10.44;100.00
55301;BME280;58302;51.446;-2.000;2023-02-20T10:56:58;101630.06;;;10.52;100.00
55301;BME280;58302;51.446;-2.000;2023-02-20T10:59:23;101630.66;;;10.54;100.00
55301;BME280;58302;51.446;-2.000;2023-02-20T11:01:51;101619.78;;;10.54;100.00
55301;BME280;58302;51.446;-2.000;2023-02-20T11:04:33;101617.66;;;10.56;100.00
55301;BME280;58302;51.446;-2.000;2023-02-20T11:07:17;101627.84;;;10.61;100.00
55301;BME280;58302;51.446;-2.000;2023-02-20T11:09:44;101632.66;;;10.59;100.00
55301;BME280;58302;51.446;-2.000;2023-02-20T11:12:55;101626.28;;;10.53;100.00
55301;BME280;58302;51.446;-2.000;2023-02-20T11:14:56;101627.72;;;10.55;100.00
55301;BME280;58302;51.446;-2.000;2023-02-20T11:17:24;101622.28;;;10.55;100.00
55301;BME280;58302;51.446;-2.000;2023-02-20T11:19:52;101622.59;;;10.59;100.00
55301;BME280;58302;51.446;-2.000;2023-02-20T11:22:36;101617.41;;;10.58;100.00
55301;BME280;58302;51.446;-2.000;2023-02-20T11:25:37;101620.72;;;10.60;100.00
55301;BME280;58302;51.446;-2.000;2023-02-20T11:27:55;101619.56;;;10.67;100.00
55301;BME280;58302;51.446;-2.000;2023-02-20T11:35:49;101616.63;;;11.09;100.00
55301;BME280;58302;51.446;-2.000;2023-02-20T11:40:44;101610.81;;;11.29;100.00
55301;BME280;58302;51.446;-2.000;2023-02-20T11:45:37;101611.59;;;11.01;100.00
55301;BME280;58302;51.446;-2.000;2023-02-20T11:50:39;101603.66;;;10.88;100.00
55301;BME280;58302;51.446;-2.000;2023-02-20T11:53:05;101601.41;;;10.96;100.00
55301;BME280;58302;51.446;-2.000;2023-02-20T11:55:33;101586.00;;;11.14;100.00
55301;BME280;58302;51.446;-2.000;2023-02-20T11:57:59;101595.00;;;11.43;100.00
55301;BME280;58302;51.446;-2.000;2023-02-20T12:00:27;101584.91;;;11.55;100.00
55301;BME280;58302;51.446;-2.000;2023-02-20T12:03:03;101580.16;;;11.79;100.00
55301;BME280;58302;51.446;-2.000;2023-02-20T12:08:01;101568.91;;;11.87;100.00
55301;BME280;58302;51.446;-2.000;2023-02-20T12:10:40;101578.06;;;11.69;100.00
55301;BME280;58302;51.446;-2.000;2023-02-20T12:13:11;101579.50;;;11.72;100.00
55301;BME280;58302;51.446;-2.000;2023-02-20T12:15:38;101573.59;;;11.63;100.00
55301;BME280;58302;51.446;-2.000;2023-02-20T12:20:40;101561.88;;;11.46;100.00
55301;BME280;58302;51.446;-2.000;2023-02-20T12:23:17;101558.91;;;11.64;100.00
55301;BME280;58302;51.446;-2.000;2023-02-20T12:25:51;101563.69;;;11.57;100.00
55301;BME280;58302;51.446;-2.000;2023-02-20T12:38:48;101537.66;;;12.28;100.00
55301;BME280;58302;51.446;-2.000;2023-02-20T12:46:30;101527.03;;;12.65;100.00
55301;BME280;58302;51.446;-2.000;2023-02-20T12:49:14;101515.53;;;12.85;100.00
55301;BME280;58302;51.446;-2.000;2023-02-20T12:51:58;101502.44;;;13.31;100.00
55301;BME280;58302;51.446;-2.000;2023-02-20T13:02:30;101499.91;;;13.84;100.00
55301;BME280;58302;51.446;-2.000;2023-02-20T13:04:58;101494.34;;;14.11;100.00
55301;BME280;58302;51.446;-2.000;2023-02-20T13:07:36;101503.22;;;13.86;100.00
55301;BME280;58302;51.446;-2.000;2023-02-20T13:10:06;101491.78;;;13.62;100.00
55301;BME280;58302;51.446;-2.000;2023-02-20T13:12:32;101490.16;;;13.61;100.00
55301;BME280;58302;51.446;-2.000;2023-02-20T13:17:41;101493.31;;;13.48;100.00
55301;BME280;58302;51.446;-2.000;2023-02-20T13:20:14;101485.19;;;13.53;100.00
55301;BME280;58302;51.446;-2.000;2023-02-20T13:22:41;101486.72;;;13.43;100.00
55301;BME280;58302;51.446;-2.000;2023-02-20T13:25:30;101485.59;;;13.17;100.00
55301;BME280;58302;51.446;-2.000;2023-02-20T13:33:35;101465.34;;;13.08;100.00
55301;BME280;58302;51.446;-2.000;2023-02-20T13:36:02;101471.56;;;13.04;100.00
55301;BME280;58302;51.446;-2.000;2023-02-20T13:38:28;101460.16;;;13.12;100.00
55301;BME280;58302;51.446;-2.000;2023-02-20T13:53:41;101443.84;;;12.90;100.00
55301;BME280;58302;51.446;-2.000;2023-02-20T13:56:14;101441.50;;;12.77;100.00
55301;BME280;58302;51.446;-2.000;2023-02-20T13:58:40;101441.34;;;12.61;100.00
55301;BME280;58302;51.446;-2.000;2023-02-20T14:01:06;101441.50;;;12.77;100.00
55301;BME280;58302;51.446;-2.000;2023-02-20T14:03:33;101434.56;;;12.91;100.00
55301;BME280;58302;51.446;-2.000;2023-02-20T14:06:12;101429.22;;;13.01;100.00
55301;BME280;58302;51.446;-2.000;2023-02-20T14:08:45;101422.28;;;13.15;100.00
55301;BME280;58302;51.446;-2.000;2023-02-20T14:11:13;101424.13;;;13.10;100.00
55301;BME280;58302;51.446;-2.000;2023-02-20T14:13:40;101426.72;;;12.73;100.00
55301;BME280;58302;51.446;-2.000;2023-02-20T14:16:28;101435.44;;;12.48;100.00
55301;BME280;58302;51.446;-2.000;2023-02-20T14:18:58;101421.16;;;12.40;100.00
55301;BME280;58302;51.446;-2.000;2023-02-20T14:21:24;101421.97;;;12.41;100.00
55301;BME280;58302;51.446;-2.000;2023-02-20T14:23:50;101424.84;;;12.29;100.00
55301;BME280;58302;51.446;-2.000;2023-02-20T14:26:26;101434.03;;;12.23;100.00
55301;BME280;58302;51.446;-2.000;2023-02-20T14:28:54;101422.69;;;12.09;100.00
55301;BME280;58302;51.446;-2.000;2023-02-20T14:31:31;101420.97;;;12.03;100.00
55301;BME280;58302;51.446;-2.000;2023-02-20T14:33:59;101414.53;;;11.93;100.00
55301;BME280;58302;51.446;-2.000;2023-02-20T14:41:56;101412.28;;;12.06;100.00
55301;BME280;58302;51.446;-2.000;2023-02-20T14:44:23;101410.19;;;12.13;100.00
55301;BME280;58302;51.446;-2.000;2023-02-20T14:46:50;101406.63;;;12.13;100.00
55301;BME280;58302;51.446;-2.000;2023-02-20T14:49:22;101412.22;;;12.23;100.00
55301;BME280;58302;51.446;-2.000;2023-02-20T14:51:48;101414.00;;;12.34;100.00